Time;durP1;ratioP1;P1;durP2;ratioP2;P2;SDS_P1;SDS_P2;PMS_P1;PMS_P2;Temp;Humidity;BMP_temperature;BMP_pressure;BME280_temperature;BME280_humidity;BME280_pressure;Samples;Min_cycle;Max_cycle;Signal;HPM_P1;HPM_P2
2023/11/27 00:01:02;;;;;;;8.33;8.03;;;4.60;1.00;;;;;;5015956;28;20230;-79
2023/11/27 00:03:31;;;;;;;10.75;10.05;;;4.70;99.90;;;;;;5014764;28;20501;-78
2023/11/27 00:05:59;;;;;;;9.60;9.00;;;4.60;99.90;;;;;;5010545;28;20198;-78
2023/11/27 00:08:28;;;;;;;9.50;9.00;;;4.60;99.90;;;;;;5014534;28;20951;-78
2023/11/27 00:10:56;;;;;;;9.35;8.85;;;4.60;1.00;;;;;;5015389;28;20457;-78
2023/11/27 00:13:28;;;;;;;11.47;10.67;;;4.60;1.00;;;;;;5015102;28;20711;-78
2023/11/27 00:15:56;;;;;;;12.57;11.68;;;4.60;99.90;;;;;;5015953;28;20929;-77
2023/11/27 00:18:25;;;;;;;10.00;9.40;;;4.60;99.90;;;;;;5013889;28;20216;-78
2023/11/27 00:20:54;;;;;;;9.05;8.60;;;4.60;99.90;;;;;;5014960;28;20210;-78
2023/11/27 00:23:23;;;;;;;9.18;8.73;;;4.50;99.90;;;;;;5015468;28;20235;-78
2023/11/27 00:25:51;;;;;;;8.70;8.40;;;4.50;99.90;;;;;;5014489;28;20217;-76
2023/11/27 00:28:19;;;;;;;8.90;8.63;;;4.50;99.90;;;;;;5016070;28;20547;-77
2023/11/27 00:30:48;;;;;;;9.05;8.55;;;4.50;99.90;;;;;;5015354;28;20527;-78
2023/11/27 00:33:16;;;;;;;9.07;8.68;;;4.60;99.90;;;;;;5014969;28;20617;-77
2023/11/27 00:35:44;;;;;;;8.77;8.37;;;4.60;99.90;;;;;;5014971;28;20503;-77
2023/11/27 00:38:14;;;;;;;8.35;8.15;;;4.60;99.90;;;;;;5013689;28;20480;-78
2023/11/27 00:40:42;;;;;;;8.80;8.40;;;4.60;99.90;;;;;;5015863;28;20285;-79
2023/11/27 00:43:10;;;;;;;9.68;9.15;;;4.50;99.90;;;;;;5014841;28;20229;-78
2023/11/27 00:45:39;;;;;;;9.25;8.95;;;4.60;99.90;;;;;;5014801;28;20563;-76
2023/11/27 00:48:07;;;;;;;8.93;8.60;;;4.50;99.90;;;;;;5015084;28;20195;-77
2023/11/27 00:50:35;;;;;;;9.18;8.88;;;4.50;99.90;;;;;;5013642;28;20225;-77
2023/11/27 00:53:03;;;;;;;8.80;8.40;;;4.50;99.90;;;;;;5015824;28;20237;-78
2023/11/27 00:55:33;;;;;;;8.93;8.57;;;4.50;99.90;;;;;;5013685;28;20669;-77
2023/11/27 00:58:01;;;;;;;8.50;8.05;;;4.40;99.90;;;;;;5013330;28;20198;-76
2023/11/27 01:00:30;;;;;;;9.05;8.65;;;4.40;99.90;;;;;;5012389;28;20214;-76
2023/11/27 01:02:58;;;;;;;8.88;8.50;;;4.40;99.90;;;;;;5016209;28;20230;-77
2023/11/27 01:05:26;;;;;;;9.20;8.70;;;4.30;99.90;;;;;;5014918;28;20213;-75
2023/11/27 01:07:54;;;;;;;10.48;9.98;;;4.30;99.90;;;;;;5014610;28;20286;-77
2023/11/27 01:10:23;;;;;;;8.68;8.38;;;4.30;99.90;;;;;;5015735;28;20186;-77
2023/11/27 01:12:52;;;;;;;8.30;8.00;;;4.40;99.90;;;;;;5015675;28;20799;-78
2023/11/27 01:15:21;;;;;;;8.63;8.23;;;4.40;99.90;;;;;;5011949;28;21105;-77
2023/11/27 01:17:49;;;;;;;8.52;8.23;;;4.30;99.90;;;;;;5013400;28;20223;-76
2023/11/27 01:20:19;;;;;;;8.00;7.72;;;4.30;99.90;;;;;;5012820;28;20211;-77
2023/11/27 01:22:47;;;;;;;9.13;8.43;;;4.20;99.90;;;;;;5017951;28;20226;-78
2023/11/27 01:25:17;;;;;;;9.00;8.53;;;4.30;99.90;;;;;;5017624;28;20528;-79
2023/11/27 01:27:45;;;;;;;8.60;8.35;;;4.30;99.90;;;;;;5020758;28;20460;-78
2023/11/27 01:30:18;;;;;;;8.57;8.20;;;4.20;99.90;;;;;;5017486;28;20291;-77
2023/11/27 01:32:46;;;;;;;8.50;8.20;;;4.20;99.90;;;;;;5018428;28;20221;-78
2023/11/27 01:35:15;;;;;;;9.02;8.63;;;4.20;99.90;;;;;;5017317;28;20887;-77
2023/11/27 01:37:43;;;;;;;8.77;8.38;;;4.30;99.90;;;;;;5019325;28;20203;-78
2023/11/27 01:40:11;;;;;;;8.82;8.40;;;4.20;99.90;;;;;;5021005;28;20865;-78
2023/11/27 01:42:40;;;;;;;9.13;8.63;;;4.30;99.90;;;;;;5017132;28;20227;-78
2023/11/27 01:45:09;;;;;;;8.68;8.38;;;4.30;99.90;;;;;;5017040;28;20457;-77
2023/11/27 01:47:39;;;;;;;8.23;8.02;;;4.30;99.90;;;;;;5018344;28;20198;-79
2023/11/27 01:50:09;;;;;;;8.88;8.50;;;4.30;99.90;;;;;;5018010;28;20269;-78
2023/11/27 01:52:40;;;;;;;8.57;8.23;;;4.30;99.90;;;;;;5014373;28;20218;-78
2023/11/27 01:55:11;;;;;;;7.95;7.65;;;4.30;99.90;;;;;;5018602;28;20198;-78
2023/11/27 01:57:39;;;;;;;8.73;8.23;;;4.30;99.90;;;;;;5018125;28;20322;-78
2023/11/27 02:00:11;;;;;;;8.30;8.10;;;4.30;99.90;;;;;;5017562;28;20198;-78
2023/11/27 02:02:46;;;;;;;8.90;8.50;;;4.30;99.90;;;;;;5015305;28;20484;-76
2023/11/27 02:05:14;;;;;;;8.30;8.00;;;4.10;99.90;;;;;;5015649;28;20266;-77
2023/11/27 02:07:43;;;;;;;8.43;8.23;;;4.20;99.90;;;;;;5017207;28;20239;-79
2023/11/27 02:10:11;;;;;;;8.52;8.25;;;4.30;99.90;;;;;;5017366;28;20677;-77
2023/11/27 02:12:40;;;;;;;9.07;8.77;;;4.30;99.90;;;;;;5017086;28;20226;-77
2023/11/27 02:15:10;;;;;;;7.90;7.70;;;4.30;99.90;;;;;;5019529;28;20198;-77
2023/11/27 02:17:38;;;;;;;8.80;8.35;;;4.20;99.90;;;;;;5017344;28;20195;-78
2023/11/27 02:20:10;;;;;;;8.90;8.60;;;4.20;99.90;;;;;;5016635;28;20210;-77
2023/11/27 02:22:38;;;;;;;8.70;8.30;;;4.30;99.90;;;;;;5017373;28;20486;-77
2023/11/27 02:25:08;;;;;;;8.53;8.23;;;4.20;99.90;;;;;;5014342;28;20203;-77
2023/11/27 02:27:39;;;;;;;8.30;8.00;;;4.20;99.90;;;;;;5017722;28;20456;-79
2023/11/27 02:30:09;;;;;;;8.35;8.10;;;4.20;99.90;;;;;;5018321;28;20472;-76
2023/11/27 02:32:37;;;;;;;8.52;8.13;;;4.20;99.90;;;;;;5015599;28;20218;-76
2023/11/27 02:35:06;;;;;;;8.63;8.32;;;4.30;99.90;;;;;;5019841;28;20574;-77
2023/11/27 02:37:34;;;;;;;10.65;9.60;;;4.30;99.90;;;;;;5013651;28;20266;-78
2023/11/27 02:40:02;;;;;;;8.70;8.40;;;4.30;99.90;;;;;;5013079;28;20287;-77
2023/11/27 02:42:32;;;;;;;8.52;8.23;;;4.40;99.90;;;;;;5014958;28;20735;-77
2023/11/27 02:45:00;;;;;;;8.63;8.23;;;4.30;99.90;;;;;;5018447;28;20199;-77
2023/11/27 02:47:28;;;;;;;8.30;8.00;;;4.30;99.90;;;;;;5016880;28;20217;-77
2023/11/27 02:49:56;;;;;;;9.15;8.55;;;4.30;99.90;;;;;;5018212;28;20561;-75
2023/11/27 02:52:24;;;;;;;8.65;8.15;;;4.30;99.90;;;;;;5016645;28;20206;-77
2023/11/27 02:54:53;;;;;;;8.40;8.00;;;4.40;99.90;;;;;;5015322;28;20924;-76
2023/11/27 02:57:22;;;;;;;8.10;7.90;;;4.30;99.90;;;;;;5013905;28;20680;-77
2023/11/27 02:59:51;;;;;;;7.97;7.68;;;4.30;99.90;;;;;;5013102;28;20461;-77
2023/11/27 03:02:20;;;;;;;7.53;7.32;;;4.40;99.90;;;;;;5015239;28;20881;-77
2023/11/27 03:04:48;;;;;;;8.38;8.07;;;4.40;99.90;;;;;;5016440;28;20191;-77
2023/11/27 03:07:17;;;;;;;8.50;8.20;;;4.40;99.90;;;;;;5014953;28;20212;-78
2023/11/27 03:09:47;;;;;;;7.88;7.68;;;4.30;99.90;;;;;;5014623;28;20285;-77
2023/11/27 03:12:16;;;;;;;8.70;8.27;;;4.40;99.90;;;;;;5015529;28;20225;-76
2023/11/27 03:14:44;;;;;;;7.80;7.60;;;4.40;99.90;;;;;;5017595;28;20202;-76
2023/11/27 03:17:13;;;;;;;8.02;7.82;;;4.50;99.90;;;;;;5017976;28;20285;-78
2023/11/27 03:19:42;;;;;;;8.00;7.70;;;4.50;99.90;;;;;;5014837;28;20194;-77
2023/11/27 03:22:15;;;;;;;8.20;7.95;;;4.50;99.90;;;;;;5012428;28;20730;-75
2023/11/27 03:24:44;;;;;;;7.75;7.55;;;4.50;99.90;;;;;;5014468;28;20197;-77
2023/11/27 03:27:12;;;;;;;8.35;8.05;;;4.50;99.90;;;;;;5015910;28;20756;-77
2023/11/27 03:29:40;;;;;;;8.70;8.30;;;4.50;99.10;;;;;;5016305;28;20202;-78
2023/11/27 03:32:08;;;;;;;8.60;8.30;;;4.50;99.90;;;;;;5015352;28;20215;-76
2023/11/27 03:34:38;;;;;;;7.72;7.50;;;4.50;99.90;;;;;;5017686;28;20248;-79
2023/11/27 03:37:06;;;;;;;8.40;8.00;;;4.50;84.10;;;;;;5013591;28;20208;-77
2023/11/27 03:39:34;;;;;;;8.68;8.00;;;4.50;99.90;;;;;;5015424;28;20202;-77
2023/11/27 03:42:03;;;;;;;7.68;7.38;;;4.50;97.80;;;;;;5013123;28;20214;-77
2023/11/27 03:44:31;;;;;;;7.85;7.55;;;4.50;98.90;;;;;;5011649;28;20210;-77
2023/11/27 03:46:59;;;;;;;7.75;7.55;;;4.50;97.10;;;;;;5016949;28;20195;-77
2023/11/27 03:49:27;;;;;;;7.83;7.63;;;4.50;35.50;;;;;;5012662;28;20635;-77
2023/11/27 03:51:57;;;;;;;7.80;7.60;;;4.50;81.40;;;;;;5015991;28;20477;-77
2023/11/27 03:54:25;;;;;;;8.23;7.95;;;4.50;43.90;;;;;;5015047;28;20242;-77
2023/11/27 03:56:53;;;;;;;8.10;7.80;;;4.60;39.10;;;;;;5014052;28;20244;-77
2023/11/27 03:59:21;;;;;;;7.80;7.60;;;4.60;41.80;;;;;;5017391;28;20469;-77
2023/11/27 04:01:49;;;;;;;8.05;7.80;;;4.50;32.90;;;;;;5014740;28;20363;-78
2023/11/27 04:04:17;;;;;;;7.50;7.30;;;4.60;9.20;;;;;;5014651;28;20226;-77
2023/11/27 04:06:46;;;;;;;7.65;7.45;;;4.50;1.00;;;;;;5014402;28;20221;-77
2023/11/27 04:09:20;;;;;;;7.55;7.35;;;4.50;1.00;;;;;;5014466;28;20237;-77
2023/11/27 04:11:49;;;;;;;7.93;7.53;;;4.50;1.00;;;;;;5011768;28;20203;-78
2023/11/27 04:14:17;;;;;;;7.70;7.50;;;4.50;1.00;;;;;;5011705;28;20309;-79
2023/11/27 04:16:46;;;;;;;7.30;7.10;;;4.50;1.00;;;;;;5018321;28;20284;-78
2023/11/27 04:19:14;;;;;;;7.78;7.47;;;4.50;1.00;;;;;;5017112;28;20203;-78
2023/11/27 04:21:42;;;;;;;7.38;7.18;;;4.40;1.00;;;;;;5012948;28;20214;-78
2023/11/27 04:24:11;;;;;;;7.75;7.55;;;4.50;1.00;;;;;;5015093;28;20245;-78
2023/11/27 04:26:40;;;;;;;7.78;7.40;;;4.50;1.00;;;;;;5015634;28;20209;-77
2023/11/27 04:29:09;;;;;;;7.97;7.78;;;4.40;1.00;;;;;;5016145;28;20739;-78
2023/11/27 04:31:37;;;;;;;8.25;7.60;;;4.40;1.00;;;;;;5019500;28;20206;-77
2023/11/27 04:34:05;;;;;;;7.70;7.45;;;4.40;1.00;;;;;;5016414;28;20305;-77
2023/11/27 04:36:33;;;;;;;7.35;7.15;;;4.40;1.00;;;;;;5015966;28;20625;-78
2023/11/27 04:39:03;;;;;;;7.50;7.30;;;4.30;1.00;;;;;;5014816;28;20283;-79
2023/11/27 04:41:31;;;;;;;8.02;7.75;;;4.30;1.00;;;;;;5010788;28;20282;-77
2023/11/27 04:44:01;;;;;;;7.20;7.00;;;4.30;1.00;;;;;;5017063;28;20309;-78
2023/11/27 04:46:29;;;;;;;7.40;7.17;;;4.30;1.00;;;;;;5014963;28;20202;-78
2023/11/27 04:48:57;;;;;;;7.55;7.25;;;4.30;1.00;;;;;;5013343;28;20553;-78
2023/11/27 04:51:26;;;;;;;7.45;7.25;;;4.30;1.00;;;;;;5015591;28;20213;-78
2023/11/27 04:53:54;;;;;;;7.25;6.97;;;4.30;1.00;;;;;;5013242;28;20218;-78
2023/11/27 04:56:22;;;;;;;7.40;7.13;;;4.30;1.00;;;;;;5012273;28;20206;-78
2023/11/27 04:58:50;;;;;;;7.10;6.80;;;4.20;1.00;;;;;;5018757;28;20221;-77
2023/11/27 05:01:19;;;;;;;7.35;6.95;;;4.20;1.00;;;;;;5015342;28;20207;-77
2023/11/27 05:03:47;;;;;;;7.53;7.22;;;4.20;1.00;;;;;;5018450;28;20228;-76
2023/11/27 05:06:15;;;;;;;7.00;6.70;;;4.20;1.00;;;;;;5017157;28;20206;-77
2023/11/27 05:08:44;;;;;;;7.03;6.82;;;4.30;1.00;;;;;;5018034;28;20268;-77
2023/11/27 05:11:18;;;;;;;7.32;7.03;;;4.20;1.00;;;;;;5015256;28;20240;-78
2023/11/27 05:13:47;;;;;;;7.00;6.70;;;4.20;1.00;;;;;;5020034;28;20219;-76
2023/11/27 05:16:17;;;;;;;6.50;6.40;;;4.20;1.00;;;;;;5016933;28;20218;-76
2023/11/27 05:18:47;;;;;;;7.10;6.90;;;4.30;1.00;;;;;;5016890;28;20205;-77
2023/11/27 05:21:16;;;;;;;6.95;6.75;;;4.30;1.00;;;;;;5018809;28;20213;-77
2023/11/27 05:23:44;;;;;;;7.22;6.90;;;4.20;1.00;;;;;;5017899;28;20326;-75
2023/11/27 05:26:13;;;;;;;7.10;6.90;;;4.20;1.00;;;;;;5018241;28;20209;-76
2023/11/27 05:28:41;;;;;;;6.57;6.40;;;4.20;1.00;;;;;;5021691;28;20211;-77
2023/11/27 05:31:10;;;;;;;7.05;6.75;;;4.20;1.00;;;;;;5016794;28;20257;-76
2023/11/27 05:33:38;;;;;;;6.93;6.50;;;4.20;1.00;;;;;;5013142;28;20294;-77
2023/11/27 05:36:09;;;;;;;6.70;6.53;;;4.10;1.00;;;;;;5016961;28;20222;-75
2023/11/27 05:38:38;;;;;;;6.40;6.20;;;4.10;1.00;;;;;;5017415;28;20206;-77
2023/11/27 05:41:07;;;;;;;6.75;6.60;;;4.10;1.00;;;;;;5017811;28;20293;-76
2023/11/27 05:43:35;;;;;;;7.32;7.03;;;4.10;1.00;;;;;;5017831;28;20242;-77
2023/11/27 05:46:04;;;;;;;6.50;6.30;;;4.10;1.00;;;;;;5015880;28;20897;-77
2023/11/27 05:48:32;;;;;;;6.60;6.35;;;4.10;1.00;;;;;;5017248;28;20210;-77
2023/11/27 05:51:01;;;;;;;6.50;6.30;;;4.10;1.00;;;;;;5024796;28;20561;-77
2023/11/27 05:53:31;;;;;;;6.82;6.47;;;4.10;1.00;;;;;;5018688;28;20229;-77
2023/11/27 05:56:00;;;;;;;8.60;8.10;;;4.10;1.00;;;;;;5018393;28;20285;-77
2023/11/27 05:58:28;;;;;;;8.50;8.00;;;4.20;1.00;;;;;;5015515;28;20314;-76
2023/11/27 06:00:57;;;;;;;14.43;13.40;;;4.20;1.00;;;;;;5016656;28;20283;-77
2023/11/27 06:03:25;;;;;;;8.00;7.68;;;4.10;1.00;;;;;;5012759;28;20512;-77
2023/11/27 06:05:53;;;;;;;7.70;7.50;;;4.20;1.00;;;;;;5014992;28;20599;-76
2023/11/27 06:08:21;;;;;;;7.10;6.90;;;4.20;1.00;;;;;;5017534;28;20214;-75
2023/11/27 06:10:51;;;;;;;6.82;6.63;;;4.20;1.00;;;;;;5018207;28;20209;-75
2023/11/27 06:13:19;;;;;;;6.75;6.53;;;4.20;1.00;;;;;;5014702;28;20225;-76
2023/11/27 06:15:47;;;;;;;6.50;6.30;;;4.20;1.00;;;;;;5019317;28;20244;-76
2023/11/27 06:18:15;;;;;;;6.68;6.47;;;4.20;1.00;;;;;;5019331;28;20213;-76
2023/11/27 06:20:43;;;;;;;6.70;6.50;;;4.20;1.00;;;;;;5016601;28;20198;-76
2023/11/27 06:23:11;;;;;;;8.05;7.55;;;4.20;1.00;;;;;;5016402;28;20640;-76
2023/11/27 06:25:39;;;;;;;8.00;7.70;;;4.20;1.00;;;;;;5019508;28;20954;-76
2023/11/27 06:28:13;;;;;;;7.00;6.70;;;4.20;1.00;;;;;;5019072;28;20304;-76
2023/11/27 06:30:41;;;;;;;7.35;7.05;;;4.30;1.00;;;;;;5019187;28;20214;-76
2023/11/27 06:33:10;;;;;;;8.25;7.95;;;4.30;1.00;;;;;;5016896;28;20634;-74
2023/11/27 06:35:38;;;;;;;7.57;7.18;;;4.20;1.00;;;;;;5016168;28;20206;-76
2023/11/27 06:38:06;;;;;;;8.50;7.90;;;4.20;1.00;;;;;;5016764;28;20191;-76
2023/11/27 06:40:34;;;;;;;7.32;7.00;;;4.20;1.00;;;;;;5015821;28;20210;-76
2023/11/27 06:43:16;;;;;;;7.82;7.47;;;4.20;1.00;;;;;;5016397;28;20226;-77
2023/11/27 06:45:44;;;;;;;8.95;8.48;;;4.30;1.00;;;;;;5018116;28;20292;-75
2023/11/27 06:48:13;;;;;;;11.40;10.23;;;4.30;1.00;;;;;;5016503;28;20203;-77
2023/11/27 06:50:41;;;;;;;7.97;7.68;;;4.40;1.00;;;;;;5018089;28;20249;-75
2023/11/27 06:53:09;;;;;;;7.78;7.47;;;4.30;1.00;;;;;;5018231;28;20226;-77
2023/11/27 06:55:38;;;;;;;8.50;8.00;;;4.30;1.00;;;;;;5017237;28;20199;-76
2023/11/27 06:58:07;;;;;;;8.70;8.20;;;4.30;1.00;;;;;;5015691;28;20194;-77
2023/11/27 07:00:37;;;;;;;7.60;7.32;;;4.40;1.00;;;;;;5017573;28;20211;-76
2023/11/27 07:03:05;;;;;;;7.80;7.50;;;4.40;1.00;;;;;;5016144;28;20336;-75
2023/11/27 07:05:34;;;;;;;7.03;6.82;;;4.40;1.00;;;;;;5014726;28;20203;-77
2023/11/27 07:08:02;;;;;;;7.65;7.25;;;4.40;1.00;;;;;;5016567;28;20202;-76
2023/11/27 07:10:30;;;;;;;7.65;7.35;;;4.30;1.00;;;;;;5015099;28;20195;-76
2023/11/27 07:12:58;;;;;;;7.25;6.85;;;4.40;1.00;;;;;;5009999;28;20218;-76
2023/11/27 07:15:28;;;;;;;7.78;7.22;;;4.40;1.00;;;;;;5016130;28;20206;-76
2023/11/27 07:17:59;;;;;;;7.18;6.85;;;4.40;1.00;;;;;;5017341;28;20677;-76
2023/11/27 07:20:45;;;;;;;7.00;6.75;;;4.40;1.00;;;;;;5014994;28;20199;-76
2023/11/27 07:23:14;;;;;;;7.93;7.50;;;4.40;1.00;;;;;;5016750;28;20222;-75
2023/11/27 07:25:43;;;;;;;7.40;7.10;;;4.40;1.00;;;;;;5017919;28;20289;-76
2023/11/27 07:28:12;;;;;;;7.22;6.97;;;4.40;1.00;;;;;;5016845;28;20195;-77
2023/11/27 07:30:40;;;;;;;7.20;6.97;;;4.40;1.00;;;;;;5019117;28;20261;-76
2023/11/27 07:33:10;;;;;;;7.68;7.38;;;4.50;1.00;;;;;;5016369;28;20227;-74
2023/11/27 07:35:39;;;;;;;7.85;7.55;;;4.40;1.00;;;;;;5019460;28;20197;-77
2023/11/27 07:38:07;;;;;;;8.20;7.80;;;4.50;1.00;;;;;;5013768;28;20207;-76
2023/11/27 07:40:35;;;;;;;7.60;7.30;;;4.50;1.00;;;;;;5017743;28;20213;-76
2023/11/27 07:43:10;;;;;;;8.25;7.95;;;4.50;1.00;;;;;;5017443;28;20222;-77
2023/11/27 07:45:39;;;;;;;8.82;8.23;;;4.40;1.00;;;;;;5015821;28;20337;-75
2023/11/27 07:48:07;;;;;;;8.85;8.18;;;4.50;1.00;;;;;;5015053;28;20197;-76
2023/11/27 07:50:37;;;;;;;8.40;8.00;;;4.50;1.00;;;;;;5017642;28;20622;-77
2023/11/27 07:53:05;;;;;;;9.38;8.77;;;4.50;1.00;;;;;;5016413;28;20229;-76
2023/11/27 07:55:35;;;;;;;7.75;7.30;;;4.40;1.00;;;;;;5015207;28;20203;-76
2023/11/27 07:58:03;;;;;;;8.00;7.60;;;4.40;1.00;;;;;;5016015;28;20202;-76
2023/11/27 08:00:32;;;;;;;7.93;7.60;;;4.40;1.00;;;;;;5016265;28;20670;-76
2023/11/27 08:03:00;;;;;;;8.93;8.52;;;4.40;1.00;;;;;;5013361;28;20261;-77
2023/11/27 08:05:29;;;;;;;8.45;7.93;;;4.40;1.00;;;;;;5016453;28;20219;-76
2023/11/27 08:07:59;;;;;;;8.27;7.78;;;4.50;1.00;;;;;;5016230;28;20202;-76
2023/11/27 08:10:28;;;;;;;8.00;7.70;;;4.50;1.00;;;;;;5014849;28;20670;-77
2023/11/27 08:12:57;;;;;;;8.93;8.40;;;4.50;1.00;;;;;;5016105;28;20225;-76
2023/11/27 08:15:25;;;;;;;8.40;8.10;;;4.50;1.00;;;;;;5017251;28;20464;-76
2023/11/27 08:17:55;;;;;;;8.50;8.10;;;4.50;1.00;;;;;;5016033;28;20203;-76
2023/11/27 08:20:28;;;;;;;8.63;8.23;;;4.50;1.00;;;;;;5017127;28;20206;-76
2023/11/27 08:22:58;;;;;;;8.77;8.07;;;4.60;1.00;;;;;;5013915;28;20222;-76
2023/11/27 08:25:27;;;;;;;8.68;8.27;;;4.60;1.00;;;;;;5016582;28;20225;-75
2023/11/27 08:27:57;;;;;;;8.97;8.47;;;4.70;1.00;;;;;;5014538;28;20710;-76
2023/11/27 08:30:27;;;;;;;8.45;7.65;;;4.70;1.00;;;;;;5019310;28;20445;-76
2023/11/27 08:32:57;;;;;;;8.45;8.13;;;4.70;1.00;;;;;;5017343;28;20309;-77
2023/11/27 08:35:25;;;;;;;7.97;7.68;;;4.60;1.00;;;;;;5013107;28;20198;-77
2023/11/27 08:37:54;;;;;;;8.80;8.30;;;4.70;1.00;;;;;;5016905;28;20202;-76
2023/11/27 08:40:23;;;;;;;9.00;8.57;;;4.70;1.00;;;;;;5017083;28;20503;-75
2023/11/27 08:42:52;;;;;;;8.88;8.43;;;4.70;1.00;;;;;;5017955;28;20230;-76
2023/11/27 08:45:20;;;;;;;9.65;9.15;;;4.70;1.00;;;;;;5015797;28;20227;-76
2023/11/27 08:47:51;;;;;;;9.50;8.90;;;4.70;1.00;;;;;;5016565;28;20199;-76
2023/11/27 08:50:24;;;;;;;9.07;8.65;;;4.70;1.00;;;;;;5017833;28;20213;-77
2023/11/27 08:52:56;;;;;;;9.07;8.57;;;4.80;1.00;;;;;;5012087;28;20223;-77
2023/11/27 08:55:29;;;;;;;9.00;8.48;;;4.80;1.00;;;;;;5016247;28;20670;-75
2023/11/27 08:58:01;;;;;;;9.10;8.60;;;4.80;1.00;;;;;;5012267;28;20202;-76
2023/11/27 09:00:30;;;;;;;8.43;8.02;;;4.80;1.00;;;;;;5013282;28;20286;-76
2023/11/27 09:02:58;;;;;;;8.50;8.10;;;4.90;1.00;;;;;;5010301;28;20288;-76
2023/11/27 09:05:31;;;;;;;9.30;8.60;;;4.90;99.90;;;;;;5016507;28;20214;-77
2023/11/27 09:08:05;;;;;;;8.90;8.48;;;5.00;1.00;;;;;;5012561;28;20945;-76
2023/11/27 09:10:36;;;;;;;8.43;8.02;;;4.90;99.90;;;;;;5016391;28;20229;-76
2023/11/27 09:13:05;;;;;;;8.65;8.27;;;4.90;99.90;;;;;;5015941;28;20214;-76
2023/11/27 09:15:35;;;;;;;8.32;7.97;;;4.90;99.90;;;;;;5017755;28;20203;-76
2023/11/27 09:18:03;;;;;;;8.48;8.07;;;4.90;99.90;;;;;;5013458;28;20252;-76
2023/11/27 09:20:31;;;;;;;8.30;7.85;;;4.90;99.90;;;;;;5015200;28;20680;-76
2023/11/27 09:23:00;;;;;;;8.73;8.23;;;4.90;99.90;;;;;;5013782;28;20225;-77
2023/11/27 09:25:28;;;;;;;8.43;8.10;;;4.90;99.90;;;;;;5017406;28;20484;-76
2023/11/27 09:27:58;;;;;;;8.67;8.27;;;5.00;99.90;;;;;;5016855;28;20283;-76
2023/11/27 09:30:26;;;;;;;8.03;7.60;;;5.00;99.90;;;;;;5017082;28;20458;-76
2023/11/27 09:32:55;;;;;;;8.38;8.07;;;5.00;99.90;;;;;;5015561;28;20473;-77
2023/11/27 09:35:23;;;;;;;8.70;8.30;;;5.10;99.90;;;;;;5016953;28;20191;-76
2023/11/27 09:37:52;;;;;;;8.30;8.00;;;5.10;99.90;;;;;;5011415;28;20203;-76
2023/11/27 09:40:21;;;;;;;8.98;8.40;;;5.10;99.90;;;;;;5019296;28;20680;-75
2023/11/27 09:42:50;;;;;;;8.75;8.25;;;5.10;99.90;;;;;;5018123;28;20292;-75
2023/11/27 09:45:20;;;;;;;9.03;8.63;;;5.10;99.90;;;;;;5023153;28;20309;-76
2023/11/27 09:47:49;;;;;;;10.73;9.90;;;5.10;99.90;;;;;;5021246;28;20441;-75
2023/11/27 09:50:21;;;;;;;8.85;8.45;;;5.10;99.90;;;;;;5019578;28;20194;-76
2023/11/27 09:52:59;;;;;;;9.05;8.45;;;5.20;99.90;;;;;;5017439;28;20333;-76
2023/11/27 09:55:29;;;;;;;9.23;8.73;;;5.20;99.90;;;;;;5021531;28;20289;-76
2023/11/27 09:57:59;;;;;;;8.90;8.60;;;5.10;99.90;;;;;;5017849;28;20214;-76
2023/11/27 10:00:31;;;;;;;9.32;8.85;;;5.20;99.90;;;;;;5017330;28;20218;-75
2023/11/27 10:03:00;;;;;;;9.03;8.63;;;5.10;99.90;;;;;;5018649;28;20834;-76
2023/11/27 10:05:28;;;;;;;8.68;8.18;;;5.10;99.90;;;;;;5018034;28;20996;-76
2023/11/27 10:07:57;;;;;;;8.82;8.38;;;5.10;99.90;;;;;;5014752;28;20217;-76
2023/11/27 10:10:26;;;;;;;8.05;7.70;;;5.10;99.90;;;;;;5020744;28;20818;-77
2023/11/27 10:12:58;;;;;;;8.70;8.30;;;5.10;99.90;;;;;;5019642;28;20228;-76
2023/11/27 10:15:28;;;;;;;8.20;7.70;;;5.10;99.90;;;;;;5019884;28;20545;-76
2023/11/27 10:17:57;;;;;;;8.35;7.97;;;5.20;99.90;;;;;;5020224;28;20208;-77
2023/11/27 10:20:29;;;;;;;8.57;8.18;;;5.20;99.90;;;;;;5020171;28;20244;-76
2023/11/27 10:22:58;;;;;;;7.97;7.65;;;5.30;99.90;;;;;;5018867;28;20623;-74
2023/11/27 10:25:27;;;;;;;8.57;8.27;;;5.20;99.90;;;;;;5020302;28;20223;-76
2023/11/27 10:27:57;;;;;;;8.50;8.20;;;5.20;99.90;;;;;;5020004;28;20297;-76
2023/11/27 10:30:27;;;;;;;8.85;8.45;;;5.20;99.90;;;;;;5019944;28;20252;-76
2023/11/27 10:32:57;;;;;;;8.07;7.75;;;5.20;99.90;;;;;;5018789;28;20234;-76
2023/11/27 10:35:26;;;;;;;8.40;8.00;;;5.20;99.90;;;;;;5020244;28;20194;-75
2023/11/27 10:37:55;;;;;;;9.10;8.33;;;5.20;99.90;;;;;;5010193;28;20203;-76
2023/11/27 10:40:26;;;;;;;9.20;8.70;;;5.20;99.90;;;;;;5018883;28;20457;-75
2023/11/27 10:42:58;;;;;;;7.90;7.63;;;5.30;99.90;;;;;;5018554;28;20254;-76
2023/11/27 10:45:28;;;;;;;8.55;8.25;;;5.30;99.90;;;;;;5016724;28;20508;-77
2023/11/27 10:48:03;;;;;;;8.75;8.25;;;5.50;1.00;;;;;;5016268;28;20194;-76
2023/11/27 10:50:32;;;;;;;9.02;8.55;;;5.40;99.90;;;;;;5017586;28;20715;-77
2023/11/27 10:53:03;;;;;;;9.17;8.60;;;5.40;99.90;;;;;;5017401;28;20226;-78
2023/11/27 10:55:34;;;;;;;8.97;8.47;;;5.50;99.90;;;;;;5011381;28;20548;-76
2023/11/27 10:58:03;;;;;;;8.95;8.55;;;5.50;99.90;;;;;;5018095;28;20512;-76
2023/11/27 11:00:38;;;;;;;8.90;8.50;;;5.50;99.90;;;;;;5019393;28;20289;-76
2023/11/27 11:03:14;;;;;;;9.10;8.70;;;5.60;99.90;;;;;;5018814;28;20559;-77
2023/11/27 11:05:49;;;;;;;8.10;7.80;;;5.70;99.90;;;;;;5020022;28;20473;-77
2023/11/27 11:08:21;;;;;;;8.77;8.27;;;5.70;99.90;;;;;;5017557;28;20225;-77
2023/11/27 11:10:49;;;;;;;8.57;8.27;;;5.70;99.90;;;;;;5016860;28;20480;-76
2023/11/27 11:13:20;;;;;;;7.70;7.50;;;5.70;99.90;;;;;;5016289;28;20469;-76
2023/11/27 11:15:54;;;;;;;8.83;8.47;;;5.60;99.90;;;;;;5015745;28;20854;-77
2023/11/27 11:18:38;;;;;;;8.30;8.00;;;5.60;99.90;;;;;;5018547;28;20452;-76
2023/11/27 11:21:21;;;;;;;8.17;7.80;;;5.50;99.90;;;;;;5017266;28;20477;-77
2023/11/27 11:24:09;;;;;;;8.00;7.63;;;5.50;99.90;;;;;;5017821;28;20523;-76
2023/11/27 11:26:48;;;;;;;8.77;8.27;;;5.50;99.90;;;;;;5018142;28;20476;-77
2023/11/27 11:29:25;;;;;;;7.73;7.43;;;5.40;99.90;;;;;;5018275;28;20826;-76
2023/11/27 11:32:00;;;;;;;6.83;6.63;;;5.40;99.90;;;;;;5019478;28;20487;-76
2023/11/27 11:34:32;;;;;;;7.13;6.83;;;5.30;99.90;;;;;;5014912;28;20853;-74
2023/11/27 11:37:03;;;;;;;7.20;6.83;;;5.30;99.90;;;;;;5016661;28;20441;-77
2023/11/27 11:39:32;;;;;;;6.70;6.50;;;5.30;99.90;;;;;;5015090;28;20825;-76
2023/11/27 11:42:02;;;;;;;7.73;7.43;;;5.30;99.90;;;;;;5016745;28;20472;-77
2023/11/27 11:44:35;;;;;;;6.57;6.37;;;5.30;99.90;;;;;;5017673;28;20835;-77
2023/11/27 11:47:23;;;;;;;6.73;6.50;;;5.30;99.90;;;;;;5016945;28;20575;-75
2023/11/27 11:50:21;;;;;;;7.23;6.63;;;5.40;99.90;;;;;;5014713;28;20462;-76
2023/11/27 11:52:49;;;;;;;6.87;6.57;;;5.30;99.90;;;;;;5018957;28;20469;-76
2023/11/27 11:55:25;;;;;;;6.27;6.07;;;5.30;99.90;;;;;;5014599;28;20458;-77
2023/11/27 11:57:59;;;;;;;6.37;6.17;;;5.40;99.90;;;;;;5018748;28;20455;-76
2023/11/27 12:00:42;;;;;;;6.67;6.47;;;5.30;99.90;;;;;;5016441;28;20475;-76
2023/11/27 12:03:15;;;;;;;6.60;6.30;;;5.30;99.90;;;;;;5017615;28;20510;-77
2023/11/27 12:05:50;;;;;;;6.65;6.32;;;5.30;99.90;;;;;;5016347;28;20525;-76
2023/11/27 12:08:19;;;;;;;6.10;6.00;;;5.40;99.90;;;;;;5008416;28;20212;-76
2023/11/27 12:10:48;;;;;;;5.93;5.82;;;5.30;99.90;;;;;;5004583;28;20971;-75
2023/11/27 12:13:20;;;;;;;5.87;5.77;;;5.30;99.90;;;;;;5006219;28;20275;-75
2023/11/27 12:15:49;;;;;;;6.10;5.90;;;5.40;99.90;;;;;;5010065;28;20510;-76
2023/11/27 12:18:19;;;;;;;6.33;6.03;;;5.40;99.90;;;;;;5019572;28;20468;-77
2023/11/27 12:20:50;;;;;;;6.27;6.00;;;5.40;99.90;;;;;;5014322;28;20462;-75
2023/11/27 12:23:18;;;;;;;5.57;5.40;;;5.40;99.90;;;;;;5013347;28;20484;-76
2023/11/27 12:25:46;;;;;;;6.10;6.00;;;5.50;99.90;;;;;;5015054;28;20462;-76
2023/11/27 12:28:15;;;;;;;6.23;6.13;;;5.60;99.90;;;;;;5017755;28;20464;-76
2023/11/27 12:30:43;;;;;;;5.70;5.50;;;5.60;99.90;;;;;;5017045;28;20452;-77
2023/11/27 12:33:15;;;;;;;5.77;5.53;;;5.50;99.90;;;;;;5017157;28;20515;-77
2023/11/27 12:35:43;;;;;;;5.97;5.77;;;5.50;99.90;;;;;;5018116;28;20592;-75
2023/11/27 12:38:17;;;;;;;5.60;5.50;;;5.50;99.90;;;;;;5015435;28;21148;-77
2023/11/27 12:40:47;;;;;;;5.90;5.70;;;5.40;99.90;;;;;;5014476;28;20452;-76
2023/11/27 12:43:18;;;;;;;6.63;6.13;;;5.40;99.90;;;;;;5006129;28;20254;-77
2023/11/27 12:45:57;;;;;;;6.10;5.90;;;5.30;99.90;;;;;;5012963;28;20472;-76
2023/11/27 12:48:25;;;;;;;6.20;5.90;;;5.30;99.90;;;;;;5008121;28;20975;-76
2023/11/27 12:50:56;;;;;;;6.27;5.90;;;5.20;99.90;;;;;;5006361;28;20462;-75
2023/11/27 12:53:25;;;;;;;6.90;6.50;;;5.30;99.90;;;;;;5002755;28;20477;-75
2023/11/27 12:55:54;;;;;;;6.13;6.03;;;5.30;99.90;;;;;;5004238;28;20206;-75
2023/11/27 12:58:23;;;;;;;5.67;5.57;;;5.40;99.90;;;;;;5004067;28;20498;-76
2023/11/27 13:00:52;;;;;;;5.80;5.60;;;5.40;99.90;;;;;;5003018;28;20459;-76
2023/11/27 13:03:21;;;;;;;5.80;5.60;;;5.50;99.90;;;;;;5006385;28;20496;-76
2023/11/27 13:05:51;;;;;;;5.70;5.50;;;5.50;99.90;;;;;;5011289;28;20467;-75
2023/11/27 13:08:24;;;;;;;5.60;5.50;;;5.50;99.90;;;;;;5000976;28;20485;-75
2023/11/27 13:10:57;;;;;;;5.60;5.50;;;5.50;99.90;;;;;;5005270;28;20690;-75
2023/11/27 13:13:26;;;;;;;5.30;5.20;;;5.40;99.90;;;;;;5006527;28;20219;-76